Terminal Aerodrome Forecast
Issued by NWS Grand Forks, ND

Home | Current Version | Previous Version | Graphics & Text | Print | Product List | Glossary On
Versions: 1 2 3 4 5 6 7 8 9 10 11 12 13 14 15 16 17 18
499
FTUS43 KFGF 041120
TAFFAR
TAF
KFAR 041120Z 0412/0512 16013G22KT 5SM -SN BR OVC008
      TEMPO 0412/0414 2SM -SN BR OVC005
     FM041500 19010KT P6SM OVC010
     FM041800 25011KT P6SM BKN015
     FM042300 24008KT P6SM BKN020
     FM050100 22006KT P6SM BKN045=

USA.gov is the U.S. government's official web portal to all federal, state and local government web resources and services.